sensor_id;sensor_type;location;lat;lon;timestamp;P1;durP1;ratioP1;P2;durP2;ratioP2
40635;SDS011;26642;55.766;37.828;2023-10-31T00:02:20;2.17;;;1.70;;
40635;SDS011;26642;55.766;37.828;2023-10-31T00:04:46;2.95;;;1.90;;
40635;SDS011;26642;55.766;37.828;2023-10-31T00:07:12;2.13;;;1.90;;
40635;SDS011;26642;55.766;37.828;2023-10-31T00:09:38;2.28;;;2.00;;
40635;SDS011;26642;55.766;37.828;2023-10-31T00:12:05;3.80;;;2.00;;
40635;SDS011;26642;55.766;37.828;2023-10-31T00:14:31;3.03;;;1.73;;
40635;SDS011;26642;55.766;37.828;2023-10-31T00:16:58;2.42;;;1.77;;
40635;SDS011;26642;55.766;37.828;2023-10-31T00:19:24;2.70;;;1.88;;
40635;SDS011;26642;55.766;37.828;2023-10-31T00:21:50;1.75;;;1.60;;
40635;SDS011;26642;55.766;37.828;2023-10-31T00:24:16;6.05;;;1.73;;
40635;SDS011;26642;55.766;37.828;2023-10-31T00:26:42;2.88;;;1.80;;
40635;SDS011;26642;55.766;37.828;2023-10-31T00:29:08;2.28;;;1.60;;
40635;SDS011;26642;55.766;37.828;2023-10-31T00:31:34;2.00;;;1.77;;
40635;SDS011;26642;55.766;37.828;2023-10-31T00:34:00;3.03;;;1.48;;
40635;SDS011;26642;55.766;37.828;2023-10-31T00:36:27;3.78;;;1.60;;
40635;SDS011;26642;55.766;37.828;2023-10-31T00:38:53;2.50;;;1.80;;
40635;SDS011;26642;55.766;37.828;2023-10-31T00:41:19;1.75;;;1.52;;
40635;SDS011;26642;55.766;37.828;2023-10-31T00:43:45;2.80;;;1.70;;
40635;SDS011;26642;55.766;37.828;2023-10-31T00:46:11;1.90;;;1.67;;
40635;SDS011;26642;55.766;37.828;2023-10-31T00:48:37;1.85;;;1.60;;
40635;SDS011;26642;55.766;37.828;2023-10-31T00:51:03;2.38;;;1.50;;
40635;SDS011;26642;55.766;37.828;2023-10-31T00:53:31;2.08;;;1.80;;
40635;SDS011;26642;55.766;37.828;2023-10-31T00:55:57;2.28;;;1.60;;
40635;SDS011;26642;55.766;37.828;2023-10-31T00:58:23;2.15;;;1.35;;
40635;SDS011;26642;55.766;37.828;2023-10-31T01:00:51;2.13;;;1.65;;
40635;SDS011;26642;55.766;37.828;2023-10-31T01:03:18;3.22;;;1.60;;
40635;SDS011;26642;55.766;37.828;2023-10-31T01:05:44;1.75;;;1.45;;
40635;SDS011;26642;55.766;37.828;2023-10-31T01:08:10;2.22;;;1.50;;
40635;SDS011;26642;55.766;37.828;2023-10-31T01:10:36;1.90;;;1.50;;
40635;SDS011;26642;55.766;37.828;2023-10-31T01:13:02;2.75;;;1.80;;
40635;SDS011;26642;55.766;37.828;2023-10-31T01:15:28;1.92;;;1.55;;
40635;SDS011;26642;55.766;37.828;2023-10-31T01:17:54;1.83;;;1.50;;
40635;SDS011;26642;55.766;37.828;2023-10-31T01:20:20;2.08;;;1.50;;
40635;SDS011;26642;55.766;37.828;2023-10-31T01:22:47;1.67;;;1.58;;
40635;SDS011;26642;55.766;37.828;2023-10-31T01:25:13;2.55;;;1.63;;
40635;SDS011;26642;55.766;37.828;2023-10-31T01:27:39;1.73;;;1.63;;
40635;SDS011;26642;55.766;37.828;2023-10-31T01:30:07;2.10;;;1.50;;
40635;SDS011;26642;55.766;37.828;2023-10-31T01:32:33;1.77;;;1.45;;
40635;SDS011;26642;55.766;37.828;2023-10-31T01:34:59;2.67;;;1.80;;
40635;SDS011;26642;55.766;37.828;2023-10-31T01:37:25;1.75;;;1.23;;
40635;SDS011;26642;55.766;37.828;2023-10-31T01:39:53;2.08;;;1.10;;
40635;SDS011;26642;55.766;37.828;2023-10-31T01:42:19;2.15;;;1.48;;
40635;SDS011;26642;55.766;37.828;2023-10-31T01:44:45;2.70;;;1.63;;
40635;SDS011;26642;55.766;37.828;2023-10-31T01:47:11;2.95;;;1.52;;
40635;SDS011;26642;55.766;37.828;2023-10-31T01:49:37;1.75;;;1.48;;
40635;SDS011;26642;55.766;37.828;2023-10-31T01:52:04;2.03;;;1.52;;
40635;SDS011;26642;55.766;37.828;2023-10-31T01:54:31;2.63;;;1.52;;
40635;SDS011;26642;55.766;37.828;2023-10-31T01:57:00;2.15;;;1.40;;
40635;SDS011;26642;55.766;37.828;2023-10-31T01:59:27;1.83;;;1.50;;
40635;SDS011;26642;55.766;37.828;2023-10-31T02:01:54;1.63;;;1.35;;
40635;SDS011;26642;55.766;37.828;2023-10-31T02:04:22;3.75;;;1.40;;
40635;SDS011;26642;55.766;37.828;2023-10-31T02:06:48;2.83;;;1.63;;
40635;SDS011;26642;55.766;37.828;2023-10-31T02:09:15;2.20;;;1.58;;
40635;SDS011;26642;55.766;37.828;2023-10-31T02:11:41;3.33;;;1.63;;
40635;SDS011;26642;55.766;37.828;2023-10-31T02:14:07;1.55;;;1.45;;
40635;SDS011;26642;55.766;37.828;2023-10-31T02:16:32;1.85;;;1.30;;
40635;SDS011;26642;55.766;37.828;2023-10-31T02:18:58;1.83;;;1.30;;
40635;SDS011;26642;55.766;37.828;2023-10-31T02:21:25;2.53;;;1.38;;
40635;SDS011;26642;55.766;37.828;2023-10-31T02:24:01;1.80;;;1.50;;
40635;SDS011;26642;55.766;37.828;2023-10-31T02:26:30;1.45;;;1.15;;
40635;SDS011;26642;55.766;37.828;2023-10-31T02:28:57;2.45;;;1.60;;
40635;SDS011;26642;55.766;37.828;2023-10-31T02:31:25;1.92;;;1.63;;
40635;SDS011;26642;55.766;37.828;2023-10-31T02:33:51;2.10;;;1.58;;
40635;SDS011;26642;55.766;37.828;2023-10-31T02:36:17;1.98;;;1.65;;
40635;SDS011;26642;55.766;37.828;2023-10-31T02:38:43;1.75;;;1.20;;
40635;SDS011;26642;55.766;37.828;2023-10-31T02:41:10;1.40;;;1.30;;
40635;SDS011;26642;55.766;37.828;2023-10-31T02:43:36;3.83;;;1.80;;
40635;SDS011;26642;55.766;37.828;2023-10-31T02:46:03;3.03;;;1.85;;
40635;SDS011;26642;55.766;37.828;2023-10-31T02:48:29;1.88;;;1.40;;
40635;SDS011;26642;55.766;37.828;2023-10-31T02:50:57;2.08;;;1.42;;
40635;SDS011;26642;55.766;37.828;2023-10-31T02:53:23;3.22;;;1.48;;
40635;SDS011;26642;55.766;37.828;2023-10-31T02:55:49;2.58;;;1.30;;
40635;SDS011;26642;55.766;37.828;2023-10-31T02:58:15;1.40;;;1.30;;
40635;SDS011;26642;55.766;37.828;2023-10-31T03:00:42;1.67;;;1.50;;
40635;SDS011;26642;55.766;37.828;2023-10-31T03:03:08;2.38;;;1.60;;
40635;SDS011;26642;55.766;37.828;2023-10-31T03:05:34;2.45;;;1.35;;
40635;SDS011;26642;55.766;37.828;2023-10-31T03:08:00;2.35;;;1.48;;
40635;SDS011;26642;55.766;37.828;2023-10-31T03:10:26;2.40;;;1.50;;
40635;SDS011;26642;55.766;37.828;2023-10-31T03:12:52;1.50;;;1.40;;
40635;SDS011;26642;55.766;37.828;2023-10-31T03:15:18;2.15;;;1.25;;
40635;SDS011;26642;55.766;37.828;2023-10-31T03:17:44;3.15;;;1.77;;
40635;SDS011;26642;55.766;37.828;2023-10-31T03:20:10;2.97;;;1.40;;
40635;SDS011;26642;55.766;37.828;2023-10-31T03:22:36;2.65;;;1.70;;
40635;SDS011;26642;55.766;37.828;2023-10-31T03:25:02;3.58;;;1.60;;
40635;SDS011;26642;55.766;37.828;2023-10-31T03:27:29;3.33;;;1.60;;
40635;SDS011;26642;55.766;37.828;2023-10-31T03:29:55;3.40;;;1.45;;
40635;SDS011;26642;55.766;37.828;2023-10-31T03:32:21;2.33;;;1.50;;
40635;SDS011;26642;55.766;37.828;2023-10-31T03:34:46;3.20;;;1.70;;
40635;SDS011;26642;55.766;37.828;2023-10-31T03:37:12;2.42;;;1.40;;
40635;SDS011;26642;55.766;37.828;2023-10-31T03:39:38;3.92;;;1.40;;
40635;SDS011;26642;55.766;37.828;2023-10-31T03:42:04;3.35;;;1.70;;
40635;SDS011;26642;55.766;37.828;2023-10-31T03:44:31;1.83;;;1.63;;
40635;SDS011;26642;55.766;37.828;2023-10-31T03:46:57;2.25;;;1.40;;
40635;SDS011;26642;55.766;37.828;2023-10-31T03:49:23;2.28;;;1.70;;
40635;SDS011;26642;55.766;37.828;2023-10-31T03:51:49;4.35;;;1.75;;
40635;SDS011;26642;55.766;37.828;2023-10-31T03:54:15;3.63;;;1.30;;
40635;SDS011;26642;55.766;37.828;2023-10-31T03:56:41;2.70;;;1.67;;
40635;SDS011;26642;55.766;37.828;2023-10-31T03:59:08;3.13;;;1.77;;
40635;SDS011;26642;55.766;37.828;2023-10-31T04:01:34;2.80;;;1.73;;
40635;SDS011;26642;55.766;37.828;2023-10-31T04:04:00;3.33;;;1.38;;
40635;SDS011;26642;55.766;37.828;2023-10-31T04:06:27;3.92;;;1.60;;
40635;SDS011;26642;55.766;37.828;2023-10-31T04:08:53;3.67;;;1.50;;
40635;SDS011;26642;55.766;37.828;2023-10-31T04:11:19;2.60;;;1.90;;
40635;SDS011;26642;55.766;37.828;2023-10-31T04:13:46;1.67;;;1.40;;
40635;SDS011;26642;55.766;37.828;2023-10-31T04:16:12;2.90;;;1.50;;
40635;SDS011;26642;55.766;37.828;2023-10-31T04:18:38;4.50;;;1.85;;
40635;SDS011;26642;55.766;37.828;2023-10-31T04:21:05;3.88;;;1.98;;
40635;SDS011;26642;55.766;37.828;2023-10-31T04:23:31;3.45;;;1.70;;
40635;SDS011;26642;55.766;37.828;2023-10-31T04:25:57;4.68;;;1.80;;
40635;SDS011;26642;55.766;37.828;2023-10-31T04:28:23;3.33;;;1.98;;
40635;SDS011;26642;55.766;37.828;2023-10-31T04:30:49;3.08;;;1.77;;
40635;SDS011;26642;55.766;37.828;2023-10-31T04:33:15;2.17;;;1.67;;
40635;SDS011;26642;55.766;37.828;2023-10-31T04:35:41;2.90;;;1.80;;
40635;SDS011;26642;55.766;37.828;2023-10-31T04:38:07;4.15;;;2.08;;
40635;SDS011;26642;55.766;37.828;2023-10-31T04:40:32;2.03;;;1.58;;
40635;SDS011;26642;55.766;37.828;2023-10-31T04:42:58;3.05;;;2.00;;
40635;SDS011;26642;55.766;37.828;2023-10-31T04:45:24;3.53;;;1.98;;
40635;SDS011;26642;55.766;37.828;2023-10-31T04:47:50;2.25;;;2.05;;
40635;SDS011;26642;55.766;37.828;2023-10-31T04:50:16;2.50;;;1.73;;
40635;SDS011;26642;55.766;37.828;2023-10-31T04:52:42;4.35;;;2.05;;
40635;SDS011;26642;55.766;37.828;2023-10-31T04:55:08;2.65;;;1.80;;
40635;SDS011;26642;55.766;37.828;2023-10-31T04:57:34;2.15;;;1.75;;
40635;SDS011;26642;55.766;37.828;2023-10-31T05:00:00;3.42;;;1.80;;
40635;SDS011;26642;55.766;37.828;2023-10-31T05:02:26;3.03;;;1.70;;
40635;SDS011;26642;55.766;37.828;2023-10-31T05:04:53;4.20;;;1.80;;
40635;SDS011;26642;55.766;37.828;2023-10-31T05:07:19;2.75;;;1.60;;
40635;SDS011;26642;55.766;37.828;2023-10-31T05:09:45;2.42;;;1.77;;
40635;SDS011;26642;55.766;37.828;2023-10-31T05:12:11;1.73;;;1.63;;
40635;SDS011;26642;55.766;37.828;2023-10-31T05:14:37;2.15;;;1.92;;
40635;SDS011;26642;55.766;37.828;2023-10-31T05:17:05;3.28;;;1.85;;
40635;SDS011;26642;55.766;37.828;2023-10-31T05:19:31;1.98;;;1.55;;
40635;SDS011;26642;55.766;37.828;2023-10-31T05:21:56;2.10;;;1.75;;
40635;SDS011;26642;55.766;37.828;2023-10-31T05:24:22;2.03;;;1.73;;
40635;SDS011;26642;55.766;37.828;2023-10-31T05:26:48;2.47;;;1.92;;
40635;SDS011;26642;55.766;37.828;2023-10-31T05:29:14;2.20;;;1.58;;
40635;SDS011;26642;55.766;37.828;2023-10-31T05:31:40;2.80;;;1.92;;
40635;SDS011;26642;55.766;37.828;2023-10-31T05:34:07;3.92;;;1.77;;
40635;SDS011;26642;55.766;37.828;2023-10-31T05:36:32;3.35;;;2.00;;
40635;SDS011;26642;55.766;37.828;2023-10-31T05:38:58;2.83;;;2.03;;
40635;SDS011;26642;55.766;37.828;2023-10-31T05:41:24;2.60;;;2.22;;
40635;SDS011;26642;55.766;37.828;2023-10-31T05:43:50;3.47;;;2.20;;
40635;SDS011;26642;55.766;37.828;2023-10-31T05:46:17;5.20;;;1.90;;
40635;SDS011;26642;55.766;37.828;2023-10-31T05:48:44;5.90;;;2.20;;
40635;SDS011;26642;55.766;37.828;2023-10-31T05:51:13;5.32;;;2.40;;
40635;SDS011;26642;55.766;37.828;2023-10-31T05:53:41;4.70;;;2.58;;
40635;SDS011;26642;55.766;37.828;2023-10-31T05:56:08;6.25;;;2.53;;
40635;SDS011;26642;55.766;37.828;2023-10-31T05:58:36;3.47;;;2.40;;
40635;SDS011;26642;55.766;37.828;2023-10-31T06:01:02;4.20;;;2.45;;
40635;SDS011;26642;55.766;37.828;2023-10-31T06:03:28;3.78;;;2.38;;
40635;SDS011;26642;55.766;37.828;2023-10-31T06:05:54;3.00;;;2.33;;
40635;SDS011;26642;55.766;37.828;2023-10-31T06:08:20;4.05;;;2.55;;
40635;SDS011;26642;55.766;37.828;2023-10-31T06:10:49;3.85;;;2.47;;
40635;SDS011;26642;55.766;37.828;2023-10-31T06:13:16;5.22;;;2.50;;
40635;SDS011;26642;55.766;37.828;2023-10-31T06:15:42;5.28;;;2.63;;
40635;SDS011;26642;55.766;37.828;2023-10-31T06:18:09;3.97;;;2.47;;
40635;SDS011;26642;55.766;37.828;2023-10-31T06:20:35;3.88;;;2.40;;
40635;SDS011;26642;55.766;37.828;2023-10-31T06:23:01;3.92;;;2.33;;
40635;SDS011;26642;55.766;37.828;2023-10-31T06:25:31;5.00;;;3.10;;
40635;SDS011;26642;55.766;37.828;2023-10-31T06:27:57;5.82;;;3.03;;
40635;SDS011;26642;55.766;37.828;2023-10-31T06:30:23;4.00;;;2.90;;
40635;SDS011;26642;55.766;37.828;2023-10-31T06:32:53;7.63;;;2.80;;
40635;SDS011;26642;55.766;37.828;2023-10-31T06:35:19;5.53;;;3.00;;
40635;SDS011;26642;55.766;37.828;2023-10-31T06:37:45;5.32;;;2.90;;
40635;SDS011;26642;55.766;37.828;2023-10-31T06:40:11;9.68;;;3.17;;
40635;SDS011;26642;55.766;37.828;2023-10-31T06:42:37;7.25;;;3.22;;
40635;SDS011;26642;55.766;37.828;2023-10-31T06:45:04;5.13;;;2.50;;
40635;SDS011;26642;55.766;37.828;2023-10-31T06:47:32;6.05;;;3.17;;
40635;SDS011;26642;55.766;37.828;2023-10-31T06:49:58;7.55;;;3.47;;
40635;SDS011;26642;55.766;37.828;2023-10-31T06:52:24;5.80;;;2.85;;
40635;SDS011;26642;55.766;37.828;2023-10-31T06:54:50;8.70;;;3.33;;
40635;SDS011;26642;55.766;37.828;2023-10-31T06:57:16;7.90;;;3.08;;
40635;SDS011;26642;55.766;37.828;2023-10-31T06:59:42;8.45;;;3.20;;
40635;SDS011;26642;55.766;37.828;2023-10-31T07:02:08;8.63;;;2.75;;
40635;SDS011;26642;55.766;37.828;2023-10-31T07:04:34;6.72;;;3.10;;
40635;SDS011;26642;55.766;37.828;2023-10-31T07:07:00;11.48;;;3.03;;
40635;SDS011;26642;55.766;37.828;2023-10-31T07:09:26;13.95;;;3.08;;
40635;SDS011;26642;55.766;37.828;2023-10-31T07:11:52;6.30;;;2.65;;
40635;SDS011;26642;55.766;37.828;2023-10-31T07:14:18;6.55;;;3.25;;
40635;SDS011;26642;55.766;37.828;2023-10-31T07:16:44;8.68;;;3.38;;
40635;SDS011;26642;55.766;37.828;2023-10-31T07:19:10;7.57;;;2.50;;
40635;SDS011;26642;55.766;37.828;2023-10-31T07:21:36;8.80;;;2.97;;
40635;SDS011;26642;55.766;37.828;2023-10-31T07:24:02;8.02;;;3.05;;
40635;SDS011;26642;55.766;37.828;2023-10-31T07:26:28;7.75;;;3.00;;
40635;SDS011;26642;55.766;37.828;2023-10-31T07:28:54;5.47;;;2.80;;
40635;SDS011;26642;55.766;37.828;2023-10-31T07:31:24;23.05;;;3.03;;
40635;SDS011;26642;55.766;37.828;2023-10-31T07:33:50;7.72;;;3.13;;
40635;SDS011;26642;55.766;37.828;2023-10-31T07:36:16;10.25;;;3.25;;
40635;SDS011;26642;55.766;37.828;2023-10-31T07:38:42;4.93;;;2.78;;
40635;SDS011;26642;55.766;37.828;2023-10-31T07:41:08;6.28;;;2.75;;
40635;SDS011;26642;55.766;37.828;2023-10-31T07:43:34;11.38;;;3.33;;
40635;SDS011;26642;55.766;37.828;2023-10-31T07:46:00;7.70;;;3.03;;
40635;SDS011;26642;55.766;37.828;2023-10-31T07:48:26;10.45;;;2.80;;
40635;SDS011;26642;55.766;37.828;2023-10-31T07:50:52;6.03;;;2.67;;
40635;SDS011;26642;55.766;37.828;2023-10-31T07:53:18;7.18;;;2.78;;
40635;SDS011;26642;55.766;37.828;2023-10-31T07:55:44;4.25;;;2.35;;
40635;SDS011;26642;55.766;37.828;2023-10-31T07:58:10;6.22;;;2.83;;
40635;SDS011;26642;55.766;37.828;2023-10-31T08:00:36;5.50;;;2.58;;
40635;SDS011;26642;55.766;37.828;2023-10-31T08:03:04;9.00;;;2.88;;
40635;SDS011;26642;55.766;37.828;2023-10-31T08:05:30;7.70;;;2.47;;
40635;SDS011;26642;55.766;37.828;2023-10-31T08:07:56;9.05;;;2.90;;
40635;SDS011;26642;55.766;37.828;2023-10-31T08:10:22;6.88;;;2.95;;
40635;SDS011;26642;55.766;37.828;2023-10-31T08:12:48;5.00;;;2.53;;
40635;SDS011;26642;55.766;37.828;2023-10-31T08:15:14;5.45;;;2.83;;
40635;SDS011;26642;55.766;37.828;2023-10-31T08:17:41;5.75;;;2.80;;
40635;SDS011;26642;55.766;37.828;2023-10-31T08:20:08;5.75;;;3.05;;
40635;SDS011;26642;55.766;37.828;2023-10-31T08:22:35;4.20;;;2.83;;
40635;SDS011;26642;55.766;37.828;2023-10-31T08:25:02;3.28;;;2.70;;
40635;SDS011;26642;55.766;37.828;2023-10-31T08:27:29;7.85;;;3.28;;
40635;SDS011;26642;55.766;37.828;2023-10-31T08:29:55;4.65;;;2.72;;
40635;SDS011;26642;55.766;37.828;2023-10-31T08:32:21;9.20;;;3.20;;
40635;SDS011;26642;55.766;37.828;2023-10-31T08:34:50;6.55;;;3.15;;
40635;SDS011;26642;55.766;37.828;2023-10-31T08:37:16;6.85;;;2.85;;
40635;SDS011;26642;55.766;37.828;2023-10-31T08:39:42;9.32;;;3.00;;
40635;SDS011;26642;55.766;37.828;2023-10-31T08:42:08;3.75;;;2.72;;
40635;SDS011;26642;55.766;37.828;2023-10-31T08:44:34;7.82;;;3.33;;
40635;SDS011;26642;55.766;37.828;2023-10-31T08:47:03;5.57;;;3.05;;
40635;SDS011;26642;55.766;37.828;2023-10-31T08:49:29;5.45;;;3.20;;
40635;SDS011;26642;55.766;37.828;2023-10-31T08:51:55;4.15;;;3.33;;
40635;SDS011;26642;55.766;37.828;2023-10-31T08:54:21;3.55;;;2.63;;
40635;SDS011;26642;55.766;37.828;2023-10-31T08:56:47;5.35;;;3.50;;
40635;SDS011;26642;55.766;37.828;2023-10-31T08:59:13;9.00;;;3.33;;
40635;SDS011;26642;55.766;37.828;2023-10-31T09:01:39;5.25;;;3.47;;
40635;SDS011;26642;55.766;37.828;2023-10-31T09:04:05;6.70;;;3.40;;
40635;SDS011;26642;55.766;37.828;2023-10-31T09:06:31;5.90;;;3.33;;
40635;SDS011;26642;55.766;37.828;2023-10-31T09:08:57;6.72;;;3.45;;
40635;SDS011;26642;55.766;37.828;2023-10-31T09:11:22;5.53;;;3.03;;
40635;SDS011;26642;55.766;37.828;2023-10-31T09:13:48;7.72;;;3.00;;
40635;SDS011;26642;55.766;37.828;2023-10-31T09:16:14;5.85;;;3.20;;
40635;SDS011;26642;55.766;37.828;2023-10-31T09:18:40;3.78;;;2.85;;
40635;SDS011;26642;55.766;37.828;2023-10-31T09:21:08;4.78;;;3.40;;
40635;SDS011;26642;55.766;37.828;2023-10-31T09:23:35;3.92;;;2.90;;
40635;SDS011;26642;55.766;37.828;2023-10-31T09:26:01;5.28;;;3.05;;
40635;SDS011;26642;55.766;37.828;2023-10-31T09:28:27;6.57;;;3.33;;
40635;SDS011;26642;55.766;37.828;2023-10-31T09:30:53;8.35;;;3.70;;
40635;SDS011;26642;55.766;37.828;2023-10-31T09:33:19;6.47;;;3.50;;
40635;SDS011;26642;55.766;37.828;2023-10-31T09:35:45;7.82;;;3.58;;
40635;SDS011;26642;55.766;37.828;2023-10-31T09:38:11;6.03;;;3.05;;
40635;SDS011;26642;55.766;37.828;2023-10-31T09:40:40;3.63;;;3.10;;
40635;SDS011;26642;55.766;37.828;2023-10-31T09:43:06;5.57;;;3.60;;
40635;SDS011;26642;55.766;37.828;2023-10-31T09:45:32;8.48;;;3.35;;
40635;SDS011;26642;55.766;37.828;2023-10-31T09:47:58;5.95;;;3.22;;
40635;SDS011;26642;55.766;37.828;2023-10-31T09:50:27;4.32;;;2.97;;
40635;SDS011;26642;55.766;37.828;2023-10-31T09:52:55;5.72;;;3.00;;
40635;SDS011;26642;55.766;37.828;2023-10-31T09:55:22;5.03;;;3.42;;
40635;SDS011;26642;55.766;37.828;2023-10-31T09:57:48;3.88;;;2.97;;
40635;SDS011;26642;55.766;37.828;2023-10-31T10:00:14;6.80;;;3.17;;
40635;SDS011;26642;55.766;37.828;2023-10-31T10:02:40;4.47;;;3.20;;
40635;SDS011;26642;55.766;37.828;2023-10-31T10:05:07;5.45;;;3.30;;
40635;SDS011;26642;55.766;37.828;2023-10-31T10:07:34;4.85;;;3.17;;
40635;SDS011;26642;55.766;37.828;2023-10-31T10:10:03;5.05;;;3.00;;
40635;SDS011;26642;55.766;37.828;2023-10-31T10:12:29;5.53;;;3.20;;
40635;SDS011;26642;55.766;37.828;2023-10-31T10:14:57;7.88;;;3.08;;
40635;SDS011;26642;55.766;37.828;2023-10-31T10:17:24;4.65;;;3.42;;
40635;SDS011;26642;55.766;37.828;2023-10-31T10:20:06;4.63;;;3.58;;
40635;SDS011;26642;55.766;37.828;2023-10-31T10:22:36;5.93;;;3.38;;
40635;SDS011;26642;55.766;37.828;2023-10-31T10:25:09;4.65;;;3.00;;
40635;SDS011;26642;55.766;37.828;2023-10-31T10:27:44;5.60;;;3.42;;
40635;SDS011;26642;55.766;37.828;2023-10-31T10:30:12;3.78;;;3.10;;
40635;SDS011;26642;55.766;37.828;2023-10-31T10:32:39;4.72;;;3.35;;
40635;SDS011;26642;55.766;37.828;2023-10-31T10:35:06;5.40;;;3.45;;
40635;SDS011;26642;55.766;37.828;2023-10-31T10:37:32;5.63;;;4.30;;
40635;SDS011;26642;55.766;37.828;2023-10-31T10:40:03;16.85;;;11.60;;
40635;SDS011;26642;55.766;37.828;2023-10-31T10:42:32;9.20;;;5.60;;
40635;SDS011;26642;55.766;37.828;2023-10-31T10:45:03;6.63;;;5.10;;
40635;SDS011;26642;55.766;37.828;2023-10-31T10:47:31;5.43;;;4.07;;
40635;SDS011;26642;55.766;37.828;2023-10-31T10:49:58;4.97;;;4.15;;
40635;SDS011;26642;55.766;37.828;2023-10-31T10:55:08;6.80;;;3.80;;
40635;SDS011;26642;55.766;37.828;2023-10-31T10:57:41;5.95;;;4.03;;
40635;SDS011;26642;55.766;37.828;2023-10-31T11:00:17;5.80;;;3.85;;
40635;SDS011;26642;55.766;37.828;2023-10-31T11:02:45;4.57;;;3.80;;
40635;SDS011;26642;55.766;37.828;2023-10-31T11:05:11;6.10;;;4.38;;
40635;SDS011;26642;55.766;37.828;2023-10-31T11:07:39;5.85;;;3.83;;
40635;SDS011;26642;55.766;37.828;2023-10-31T11:10:06;4.03;;;3.17;;
40635;SDS011;26642;55.766;37.828;2023-10-31T11:12:33;7.18;;;4.20;;
40635;SDS011;26642;55.766;37.828;2023-10-31T11:15:00;5.05;;;3.58;;
40635;SDS011;26642;55.766;37.828;2023-10-31T11:17:32;4.93;;;3.55;;
40635;SDS011;26642;55.766;37.828;2023-10-31T11:20:00;5.82;;;3.75;;
40635;SDS011;26642;55.766;37.828;2023-10-31T11:22:36;6.22;;;3.75;;
40635;SDS011;26642;55.766;37.828;2023-10-31T11:25:09;5.75;;;3.55;;
40635;SDS011;26642;55.766;37.828;2023-10-31T11:27:38;7.70;;;3.95;;
40635;SDS011;26642;55.766;37.828;2023-10-31T11:33:32;5.30;;;3.90;;
40635;SDS011;26642;55.766;37.828;2023-10-31T11:35:41;5.65;;;3.65;;
40635;SDS011;26642;55.766;37.828;2023-10-31T11:38:10;6.13;;;3.78;;
40635;SDS011;26642;55.766;37.828;2023-10-31T11:40:37;6.40;;;3.88;;
40635;SDS011;26642;55.766;37.828;2023-10-31T11:43:09;4.45;;;4.03;;
40635;SDS011;26642;55.766;37.828;2023-10-31T11:45:39;5.35;;;3.75;;
40635;SDS011;26642;55.766;37.828;2023-10-31T11:48:13;4.43;;;3.47;;
40635;SDS011;26642;55.766;37.828;2023-10-31T11:50:40;4.20;;;3.33;;
40635;SDS011;26642;55.766;37.828;2023-10-31T11:53:10;5.15;;;3.42;;
40635;SDS011;26642;55.766;37.828;2023-10-31T11:55:44;4.25;;;3.55;;
40635;SDS011;26642;55.766;37.828;2023-10-31T12:00:50;6.40;;;4.75;;
40635;SDS011;26642;55.766;37.828;2023-10-31T12:03:26;6.28;;;5.00;;
40635;SDS011;26642;55.766;37.828;2023-10-31T12:05:58;7.35;;;4.75;;
40635;SDS011;26642;55.766;37.828;2023-10-31T12:08:29;7.85;;;5.28;;
40635;SDS011;26642;55.766;37.828;2023-10-31T12:11:30;11.48;;;6.03;;
40635;SDS011;26642;55.766;37.828;2023-10-31T12:16:29;10.40;;;7.00;;
40635;SDS011;26642;55.766;37.828;2023-10-31T12:24:09;10.23;;;8.15;;
40635;SDS011;26642;55.766;37.828;2023-10-31T12:26:36;12.27;;;8.35;;
40635;SDS011;26642;55.766;37.828;2023-10-31T12:29:12;11.27;;;7.97;;
40635;SDS011;26642;55.766;37.828;2023-10-31T12:31:39;11.82;;;8.73;;
40635;SDS011;26642;55.766;37.828;2023-10-31T12:34:07;13.15;;;8.30;;
40635;SDS011;26642;55.766;37.828;2023-10-31T12:36:34;14.07;;;8.40;;
40635;SDS011;26642;55.766;37.828;2023-10-31T12:39:01;11.30;;;8.20;;
40635;SDS011;26642;55.766;37.828;2023-10-31T12:41:31;13.18;;;8.23;;
40635;SDS011;26642;55.766;37.828;2023-10-31T12:43:57;12.05;;;8.05;;
40635;SDS011;26642;55.766;37.828;2023-10-31T12:46:24;13.40;;;9.05;;
40635;SDS011;26642;55.766;37.828;2023-10-31T12:48:51;12.95;;;8.85;;
40635;SDS011;26642;55.766;37.828;2023-10-31T12:51:18;13.77;;;9.32;;
40635;SDS011;26642;55.766;37.828;2023-10-31T12:53:48;13.23;;;9.38;;
40635;SDS011;26642;55.766;37.828;2023-10-31T12:59:07;13.10;;;9.38;;
40635;SDS011;26642;55.766;37.828;2023-10-31T13:01:34;15.13;;;9.10;;
40635;SDS011;26642;55.766;37.828;2023-10-31T13:04:02;12.07;;;8.90;;
40635;SDS011;26642;55.766;37.828;2023-10-31T13:06:29;13.23;;;9.15;;
40635;SDS011;26642;55.766;37.828;2023-10-31T13:08:55;9.50;;;7.68;;
40635;SDS011;26642;55.766;37.828;2023-10-31T13:11:22;12.38;;;7.30;;
40635;SDS011;26642;55.766;37.828;2023-10-31T13:13:51;10.95;;;8.20;;
40635;SDS011;26642;55.766;37.828;2023-10-31T13:16:18;11.95;;;7.95;;
40635;SDS011;26642;55.766;37.828;2023-10-31T13:18:45;12.98;;;7.60;;
40635;SDS011;26642;55.766;37.828;2023-10-31T13:21:11;11.43;;;7.28;;
40635;SDS011;26642;55.766;37.828;2023-10-31T13:23:40;10.10;;;7.30;;
40635;SDS011;26642;55.766;37.828;2023-10-31T13:26:10;10.52;;;7.93;;
40635;SDS011;26642;55.766;37.828;2023-10-31T13:28:39;10.38;;;8.10;;
40635;SDS011;26642;55.766;37.828;2023-10-31T13:31:06;8.10;;;7.20;;
40635;SDS011;26642;55.766;37.828;2023-10-31T13:33:33;8.65;;;7.63;;
40635;SDS011;26642;55.766;37.828;2023-10-31T13:36:00;11.88;;;7.95;;
40635;SDS011;26642;55.766;37.828;2023-10-31T13:38:26;9.10;;;7.57;;
40635;SDS011;26642;55.766;37.828;2023-10-31T13:40:52;9.85;;;7.30;;
40635;SDS011;26642;55.766;37.828;2023-10-31T13:43:18;10.95;;;7.88;;
40635;SDS011;26642;55.766;37.828;2023-10-31T13:45:44;10.13;;;7.93;;
40635;SDS011;26642;55.766;37.828;2023-10-31T13:48:10;10.02;;;7.68;;
40635;SDS011;26642;55.766;37.828;2023-10-31T13:50:36;10.52;;;7.45;;
40635;SDS011;26642;55.766;37.828;2023-10-31T13:53:02;10.98;;;8.05;;
40635;SDS011;26642;55.766;37.828;2023-10-31T13:55:31;13.20;;;8.88;;
40635;SDS011;26642;55.766;37.828;2023-10-31T13:57:57;10.63;;;8.05;;
40635;SDS011;26642;55.766;37.828;2023-10-31T14:00:22;11.35;;;8.52;;
40635;SDS011;26642;55.766;37.828;2023-10-31T14:02:48;10.00;;;8.07;;
40635;SDS011;26642;55.766;37.828;2023-10-31T14:05:14;9.50;;;8.05;;
40635;SDS011;26642;55.766;37.828;2023-10-31T14:07:41;12.13;;;8.85;;
40635;SDS011;26642;55.766;37.828;2023-10-31T14:10:07;12.13;;;8.32;;
40635;SDS011;26642;55.766;37.828;2023-10-31T14:12:33;9.30;;;8.10;;
40635;SDS011;26642;55.766;37.828;2023-10-31T14:14:59;11.90;;;8.57;;
40635;SDS011;26642;55.766;37.828;2023-10-31T14:17:25;11.60;;;8.68;;
40635;SDS011;26642;55.766;37.828;2023-10-31T14:19:51;10.55;;;8.32;;
40635;SDS011;26642;55.766;37.828;2023-10-31T14:22:17;12.25;;;8.63;;
40635;SDS011;26642;55.766;37.828;2023-10-31T14:24:43;13.40;;;8.73;;
40635;SDS011;26642;55.766;37.828;2023-10-31T14:27:09;12.73;;;9.35;;
40635;SDS011;26642;55.766;37.828;2023-10-31T14:29:35;11.55;;;9.52;;
40635;SDS011;26642;55.766;37.828;2023-10-31T14:32:08;11.30;;;9.15;;
40635;SDS011;26642;55.766;37.828;2023-10-31T14:34:35;11.80;;;9.43;;
40635;SDS011;26642;55.766;37.828;2023-10-31T14:37:01;12.43;;;9.65;;
40635;SDS011;26642;55.766;37.828;2023-10-31T14:39:27;14.48;;;9.40;;
40635;SDS011;26642;55.766;37.828;2023-10-31T14:41:54;12.20;;;9.27;;
40635;SDS011;26642;55.766;37.828;2023-10-31T14:44:20;12.25;;;9.30;;
40635;SDS011;26642;55.766;37.828;2023-10-31T14:46:46;10.43;;;9.13;;
40635;SDS011;26642;55.766;37.828;2023-10-31T14:49:12;12.18;;;9.00;;
40635;SDS011;26642;55.766;37.828;2023-10-31T14:51:38;11.57;;;9.35;;